Time;durP1;ratioP1;P1;durP2;ratioP2;P2;SDS_P1;SDS_P2;PMS_P1;PMS_P2;Temp;Humidity;BMP_temperature;BMP_pressure;BME280_temperature;BME280_humidity;BME280_pressure;Samples;Min_cycle;Max_cycle;Signal;HPM_P1;HPM_P2
2022/03/13 00:02:15;;;;;;;24.13;14.02;;;;;;;-2.24;69.97;100321.56;5018565;28;20091;-80
2022/03/13 00:04:43;;;;;;;25.55;13.80;;;;;;;-2.27;68.92;100329.00;5042918;28;20385;-80
2022/03/13 00:07:19;;;;;;;24.00;13.65;;;;;;;-2.31;69.45;100316.91;5023223;28;20057;-80
2022/03/13 00:09:53;;;;;;;21.00;12.80;;;;;;;-2.30;68.42;100321.19;5022421;28;20135;-80
2022/03/13 00:12:26;;;;;;;24.52;12.55;;;;;;;-2.26;68.25;100323.13;5019810;28;20047;-81
2022/03/13 00:14:55;;;;;;;24.60;12.30;;;;;;;-2.31;68.11;100321.97;5012421;28;20042;-80
2022/03/13 00:17:21;;;;;;;21.65;11.82;;;;;;;-2.27;67.83;100325.56;5013809;28;20048;-80
2022/03/13 00:19:47;;;;;;;19.60;11.68;;;;;;;-2.31;67.85;100317.75;5007978;28;20064;-80
2022/03/13 00:22:13;;;;;;;;;;;;;;;-2.32;68.33;100330.41;5024072;28;20075;-79
2022/03/13 00:24:39;;;;;;;19.80;11.60;;;;;;;-2.28;68.72;100322.16;5014009;28;19920;-82
2022/03/13 00:27:06;;;;;;;19.83;11.88;;;;;;;-2.31;67.82;100327.94;5030885;28;20029;-80
2022/03/13 00:29:34;;;;;;;22.58;12.38;;;;;;;-2.35;67.87;100325.13;4981247;28;20048;-80
2022/03/13 00:32:00;;;;;;;19.70;12.45;;;;;;;-2.40;67.80;100326.53;4997380;28;20129;-80
2022/03/13 00:34:25;;;;;;;22.45;12.10;;;;;;;-2.36;68.12;100328.47;5004923;28;20029;-80
2022/03/13 00:36:51;;;;;;;20.35;12.63;;;;;;;-2.36;67.44;100328.47;5019357;28;20037;-81
2022/03/13 00:39:17;;;;;;;23.02;12.13;;;;;;;-2.38;67.66;100320.75;5019126;28;20041;-81
2022/03/13 00:41:43;;;;;;;21.33;12.50;;;;;;;-2.33;67.70;100323.56;5035470;28;20094;-80
2022/03/13 00:44:09;;;;;;;24.30;13.00;;;;;;;-2.34;67.28;100329.41;5001814;28;20046;-81
2022/03/13 00:46:34;;;;;;;24.98;12.80;;;;;;;-2.36;67.56;100328.47;5016469;28;20072;-80
2022/03/13 00:49:00;;;;;;;18.10;11.43;;;;;;;-2.36;67.36;100324.25;5022262;28;20579;-80
2022/03/13 00:51:26;;;;;;;24.73;12.38;;;;;;;-2.38;67.68;100319.88;5051767;28;20040;-80
2022/03/13 00:53:52;;;;;;;27.15;12.57;;;;;;;-2.32;67.61;100322.78;5018701;28;20043;-81
2022/03/13 00:56:17;;;;;;;25.45;12.48;;;;;;;-2.30;67.64;100329.69;5031865;28;20458;-81
2022/03/13 00:58:43;;;;;;;24.90;13.45;;;;;;;-2.33;68.61;100324.44;5040974;28;20052;-80
2022/03/13 01:01:10;;;;;;;24.67;12.45;;;;;;;-2.34;68.33;100326.88;5018485;28;20060;-80
2022/03/13 01:03:36;;;;;;;25.85;12.68;;;;;;;-2.32;68.90;100318.56;5035076;28;20447;-81
2022/03/13 01:06:04;;;;;;;21.05;13.02;;;;;;;-2.29;68.82;100325.50;5052756;28;20045;-80
2022/03/13 01:08:30;;;;;;;25.30;13.43;;;;;;;-2.30;68.75;100332.22;5035630;28;20098;-80
2022/03/13 01:10:56;;;;;;;23.95;14.13;;;;;;;-2.33;68.77;100334.59;5035409;28;20033;-81
2022/03/13 01:13:21;;;;;;;24.40;14.02;;;;;;;-2.36;69.43;100334.41;5018613;28;20037;-80
2022/03/13 01:15:48;;;;;;;22.55;14.70;;;;;;;-2.37;69.63;100331.81;5051809;28;20033;-82
2022/03/13 01:18:14;;;;;;;25.88;14.77;;;;;;;-2.41;69.72;100324.78;5034542;28;20451;-80
2022/03/13 01:20:40;;;;;;;;;;;;;;;-2.36;69.36;100338.63;5027634;28;20045;-81
2022/03/13 01:23:11;;;;;;;24.35;13.10;;;;;;;-2.36;69.09;100338.63;5028328;28;20264;-81
2022/03/13 01:25:38;;;;;;;22.38;13.27;;;;;;;-2.38;68.64;100340.22;5018821;28;20049;-80
2022/03/13 01:28:04;;;;;;;23.55;13.70;;;;;;;-2.39;69.15;100339.31;5018527;28;20032;-80
2022/03/13 01:30:30;;;;;;;23.95;13.18;;;;;;;-2.43;67.50;100336.50;5034910;28;20412;-80
2022/03/13 01:32:56;;;;;;;22.92;12.65;;;;;;;-2.47;67.77;100339.69;5034676;28;20041;-81
2022/03/13 01:35:23;;;;;;;24.20;12.38;;;;;;;-2.39;67.93;100344.38;5018820;28;20034;-79
2022/03/13 01:37:49;;;;;;;24.60;13.07;;;;;;;-2.35;67.82;100340.38;5034791;28;20064;-80
2022/03/13 01:40:26;;;;;;;24.80;13.07;;;;;;;-2.34;67.52;100342.13;5051015;28;20045;-80
2022/03/13 01:42:51;;;;;;;25.60;13.60;;;;;;;-2.32;68.85;100343.97;5015811;28;20396;-80
2022/03/13 01:45:18;;;;;;;24.67;13.57;;;;;;;-2.32;68.94;100346.50;5021090;28;20037;-80
2022/03/13 01:47:44;;;;;;;24.40;14.23;;;;;;;-2.30;69.32;100346.59;5016865;28;20518;-80
2022/03/13 01:50:10;;;;;;;25.75;13.98;;;;;;;-2.30;69.44;100352.53;5034370;28;20064;-80
2022/03/13 01:52:38;;;;;;;22.63;12.75;;;;;;;-2.33;69.72;100354.06;5034301;28;20037;-81
2022/03/13 01:55:04;;;;;;;22.40;12.85;;;;;;;-2.32;69.28;100355.81;5024681;28;20033;-81
2022/03/13 01:57:31;;;;;;;22.75;12.68;;;;;;;-2.34;69.30;100358.28;5030113;28;20049;-81
2022/03/13 01:59:58;;;;;;;25.85;12.23;;;;;;;-2.40;68.86;100357.88;5034431;28;20024;-81
2022/03/13 02:02:25;;;;;;;21.42;12.93;;;;;;;-2.41;69.08;100360.34;5034001;28;20087;-81
2022/03/13 02:04:52;;;;;;;24.08;13.20;;;;;;;-2.46;68.88;100365.16;5018176;28;20048;-81
2022/03/13 02:07:19;;;;;;;21.75;12.82;;;;;;;-2.51;68.65;100363.16;5017986;28;20041;-80
2022/03/13 02:09:48;;;;;;;24.40;13.18;;;;;;;-2.49;67.94;100362.44;5034193;28;20060;-80
2022/03/13 02:12:18;;;;;;;19.63;12.07;;;;;;;-2.52;67.43;100361.38;5034256;28;20045;-80
2022/03/13 02:14:43;;;;;;;21.52;12.32;;;;;;;-2.54;67.39;100374.00;5050581;28;20032;-80
2022/03/13 02:17:09;;;;;;;22.05;11.57;;;;;;;-2.51;67.88;100371.63;5001553;28;20048;-80
2022/03/13 02:19:35;;;;;;;;;;;;;;;-2.49;67.21;100381.88;5034589;28;20074;-81
2022/03/13 02:22:01;;;;;;;28.33;13.32;;;;;;;-2.48;67.51;100370.94;5044134;28;20345;-80
2022/03/13 02:24:28;;;;;;;21.23;12.20;;;;;;;-2.45;67.88;100377.06;5021423;28;20029;-80
2022/03/13 02:27:05;;;;;;;22.92;11.68;;;;;;;-2.43;67.02;100378.06;5052795;28;20182;-80
2022/03/13 02:29:31;;;;;;;23.10;11.98;;;;;;;-2.43;67.12;100377.16;5010883;28;20102;-80
2022/03/13 02:31:58;;;;;;;24.38;12.98;;;;;;;-2.51;66.53;100384.34;5029098;28;20042;-81
2022/03/13 02:34:24;;;;;;;26.52;13.00;;;;;;;-2.48;67.27;100376.00;5000609;28;20550;-81
2022/03/13 02:36:49;;;;;;;31.30;13.25;;;;;;;-2.46;67.26;100387.16;5002374;28;20037;-81
2022/03/13 02:39:15;;;;;;;25.67;13.85;;;;;;;-2.48;66.93;100384.50;5053704;28;20127;-81
2022/03/13 02:41:41;;;;;;;22.90;12.40;;;;;;;-2.49;67.06;100381.88;5038294;28;20546;-81
2022/03/13 02:44:07;;;;;;;;;;;;;;;-2.46;66.90;100385.50;5022447;28;20048;-81
2022/03/13 02:46:48;;;;;;;22.92;12.40;;;;;;;-2.45;67.84;100387.22;5043074;28;19917;-84
2022/03/13 02:49:20;;;;;;;24.45;12.27;;;;;;;-2.48;67.34;100387.03;5055114;28;20045;-83
2022/03/13 02:51:47;;;;;;;21.77;12.57;;;;;;;-2.47;66.97;100382.88;5030093;28;20037;-83
2022/03/13 02:54:13;;;;;;;21.45;12.15;;;;;;;-2.48;67.37;100386.16;5012197;28;20041;-83
2022/03/13 02:56:38;;;;;;;;;;;;;;;-2.46;67.75;100395.66;5002865;28;20033;-82
2022/03/13 02:59:04;;;;;;;22.35;11.68;;;;;;;-2.44;66.81;100393.19;5031236;28;19920;-81
2022/03/13 03:01:30;;;;;;;23.38;12.57;;;;;;;-2.49;66.72;100392.03;5053892;28;20103;-80
2022/03/13 03:04:00;;;;;;;24.15;12.70;;;;;;;-2.48;66.96;100398.88;5037922;28;20507;-82
2022/03/13 03:06:28;;;;;;;21.88;12.60;;;;;;;-2.49;67.63;100402.22;5037656;28;20079;-83
2022/03/13 03:08:53;;;;;;;24.98;13.65;;;;;;;-2.49;67.25;100399.66;5054640;28;20037;-82
2022/03/13 03:11:19;;;;;;;26.63;14.05;;;;;;;-2.46;67.86;100408.34;5037163;28;20114;-81
2022/03/13 03:13:44;;;;;;;26.75;13.82;;;;;;;-2.51;67.83;100406.34;5055350;28;20060;-82
2022/03/13 03:16:10;;;;;;;23.08;13.75;;;;;;;-2.54;67.57;100403.59;5020680;28;20045;-81
2022/03/13 03:18:36;;;;;;;24.25;13.15;;;;;;;-2.61;68.26;100404.91;5020904;28;20045;-81
2022/03/13 03:21:02;;;;;;;27.08;13.73;;;;;;;-2.60;68.60;100406.66;5037566;28;20037;-81
2022/03/13 03:23:27;;;;;;;25.98;13.25;;;;;;;-2.55;67.86;100407.81;5037266;28;20033;-81
2022/03/13 03:25:53;;;;;;;23.58;13.57;;;;;;;-2.59;68.95;100416.91;5053637;28;20048;-81
2022/03/13 03:28:19;;;;;;;25.23;14.13;;;;;;;-2.60;69.46;100415.16;5053712;28;20041;-81
2022/03/13 03:30:45;;;;;;;25.48;14.27;;;;;;;-2.62;69.92;100414.16;5020266;28;20434;-82
2022/03/13 03:33:10;;;;;;;25.92;14.43;;;;;;;-2.65;70.42;100419.06;5037211;28;20037;-81
2022/03/13 03:35:36;;;;;;;27.92;14.55;;;;;;;-2.69;70.42;100418.81;5004425;28;20381;-80
2022/03/13 03:38:02;;;;;;;27.98;14.20;;;;;;;-2.72;70.27;100424.56;5035355;28;20491;-80
2022/03/13 03:40:30;;;;;;;29.30;15.20;;;;;;;-2.76;70.35;100431.91;5036775;28;20052;-81
2022/03/13 03:43:01;;;;;;;26.85;15.00;;;;;;;-2.84;70.68;100421.25;5036738;28;20068;-80
2022/03/13 03:45:27;;;;;;;32.03;15.40;;;;;;;-2.88;71.20;100432.91;5036587;28;20094;-81
2022/03/13 03:47:53;;;;;;;25.15;14.73;;;;;;;-2.92;71.52;100427.56;5036533;28;20032;-80
2022/03/13 03:50:19;;;;;;;23.70;14.23;;;;;;;-3.01;71.33;100432.94;5037075;28;20037;-83
2022/03/13 03:52:45;;;;;;;29.75;14.95;;;;;;;-3.06;71.92;100429.25;5053912;28;20400;-84
2022/03/13 03:55:10;;;;;;;28.80;14.82;;;;;;;-3.12;72.17;100427.16;5037262;28;20047;-83
2022/03/13 03:57:36;;;;;;;29.77;16.17;;;;;;;-3.14;72.18;100430.41;5037136;28;20037;-83
2022/03/13 04:00:05;;;;;;;28.77;17.35;;;;;;;-3.17;73.35;100428.53;5036992;28;20032;-83
2022/03/13 04:02:39;;;;;;;31.83;16.48;;;;;;;-3.16;73.58;100439.56;5053489;28;20056;-82
2022/03/13 04:05:05;;;;;;;;;;;;;;;-3.20;73.67;100442.72;5055399;28;20139;-83
2022/03/13 04:07:31;;;;;;;30.02;16.63;;;;;;;-3.23;73.88;100440.84;5053209;28;20007;-81
2022/03/13 04:09:57;;;;;;;;;;;;;;;-3.26;74.13;100440.66;5054913;28;20147;-83
2022/03/13 04:12:23;;;;;;;27.38;17.08;;;;;;;-3.27;74.21;100438.91;5023058;28;19945;-83
2022/03/13 04:14:49;;;;;;;30.60;17.08;;;;;;;-3.31;75.14;100444.56;5046783;28;20040;-84
2022/03/13 04:17:14;;;;;;;31.52;17.83;;;;;;;-3.28;74.89;100431.22;5036871;28;20044;-82
2022/03/13 04:19:40;;;;;;;35.85;18.20;;;;;;;-3.26;74.79;100443.19;5037036;28;20052;-83
2022/03/13 04:22:05;;;;;;;34.28;17.63;;;;;;;-3.32;74.31;100437.75;5053630;28;20039;-83
2022/03/13 04:24:31;;;;;;;30.20;17.67;;;;;;;-3.28;75.14;100449.84;5036701;28;20510;-83
2022/03/13 04:26:57;;;;;;;31.35;17.60;;;;;;;-3.32;75.53;100445.34;5053669;28;20091;-84
2022/03/13 04:29:24;;;;;;;31.65;17.35;;;;;;;-3.28;75.96;100449.84;5036817;28;20048;-82
2022/03/13 04:31:52;;;;;;;31.05;18.40;;;;;;;-3.28;75.86;100449.84;5004539;28;20048;-84
2022/03/13 04:34:18;;;;;;;33.40;18.25;;;;;;;-3.28;75.61;100452.38;5045993;28;20037;-83
2022/03/13 04:36:44;;;;;;;;;;;;;;;-3.30;76.23;100458.13;5014378;28;20041;-82
2022/03/13 04:39:10;;;;;;;31.35;18.00;;;;;;;-3.33;76.45;100451.22;5026222;28;19921;-84
2022/03/13 04:41:37;;;;;;;33.00;18.52;;;;;;;-3.37;76.19;100450.13;5029019;28;20400;-84
2022/03/13 04:44:04;;;;;;;38.08;19.08;;;;;;;-3.34;76.34;100454.53;5013995;28;20054;-83
2022/03/13 04:46:30;;;;;;;33.08;18.25;;;;;;;-3.33;77.22;100456.28;5036542;28;20084;-84
2022/03/13 04:48:57;;;;;;;;;;;;;;;-3.28;76.93;100457.44;5036222;28;20037;-83
2022/03/13 04:51:23;;;;;;;31.13;18.63;;;;;;;-3.27;76.35;100459.19;5022573;28;19913;-84
2022/03/13 04:53:49;;;;;;;30.90;18.55;;;;;;;-3.24;76.36;100456.88;5042343;28;20393;-85
2022/03/13 04:56:14;;;;;;;32.85;17.90;;;;;;;-3.21;75.81;100462.13;5026192;28;20040;-83
2022/03/13 04:58:40;;;;;;;34.90;18.20;;;;;;;-3.24;76.12;100472.09;5052835;28;20462;-83
2022/03/13 05:01:06;;;;;;;30.65;18.00;;;;;;;-3.23;75.98;100466.22;5052587;28;20052;-83
2022/03/13 05:03:33;;;;;;;27.73;17.40;;;;;;;-3.21;75.69;100471.41;5048077;28;20571;-86
2022/03/13 05:06:05;;;;;;;32.30;18.10;;;;;;;-3.19;74.32;100474.94;5043560;28;20071;-83
2022/03/13 05:08:34;;;;;;;28.85;17.23;;;;;;;-3.12;74.28;100467.78;5036742;28;20556;-83
2022/03/13 05:11:00;;;;;;;31.33;18.55;;;;;;;-3.13;73.96;100473.63;5019892;28;20086;-84
2022/03/13 05:13:26;;;;;;;34.97;18.42;;;;;;;-3.15;74.35;100470.13;5039403;28;20475;-83
2022/03/13 05:15:54;;;;;;;29.58;17.50;;;;;;;-3.12;73.78;100477.94;5018891;28;20033;-83
2022/03/13 05:18:20;;;;;;;30.42;17.63;;;;;;;-3.11;74.08;100469.56;5036379;28;20159;-84
2022/03/13 05:20:46;;;;;;;32.13;17.90;;;;;;;-3.09;73.55;100480.66;5052716;28;20059;-84
2022/03/13 05:23:12;;;;;;;32.67;17.63;;;;;;;-3.13;73.40;100475.31;5035730;28;20083;-82
2022/03/13 05:25:38;;;;;;;33.03;18.05;;;;;;;-3.13;73.34;100475.31;5034174;28;20048;-84
2022/03/13 05:28:05;;;;;;;30.23;17.55;;;;;;;-3.09;73.27;100488.28;4979904;28;20511;-82
2022/03/13 05:30:30;;;;;;;33.15;17.55;;;;;;;-3.09;73.67;100485.75;5025501;28;20037;-84
2022/03/13 05:32:56;;;;;;;34.55;18.67;;;;;;;-3.09;73.19;100488.28;5015610;28;20037;-82
2022/03/13 05:35:23;;;;;;;34.67;17.55;;;;;;;-3.09;73.80;100492.47;4997445;28;20088;-83
2022/03/13 05:37:48;;;;;;;32.63;18.73;;;;;;;-3.05;73.95;100491.91;5023408;28;20099;-83
2022/03/13 05:40:15;;;;;;;30.17;17.02;;;;;;;-3.05;73.25;100498.63;5051599;28;20487;-83
2022/03/13 05:42:47;;;;;;;31.30;17.42;;;;;;;-3.04;73.45;100491.13;5035120;28;20079;-81
2022/03/13 05:45:15;;;;;;;31.90;18.27;;;;;;;-3.02;73.91;100497.19;5035505;28;20488;-82
2022/03/13 05:47:48;;;;;;;32.30;17.45;;;;;;;-2.99;72.89;100499.00;5019218;28;20040;-82
2022/03/13 05:50:14;;;;;;;33.47;18.27;;;;;;;-2.98;73.22;100504.19;5025007;28;20107;-81
2022/03/13 05:52:40;;;;;;;31.08;17.48;;;;;;;-2.98;73.02;100493.16;5029478;28;20038;-82
2022/03/13 05:55:07;;;;;;;36.30;18.15;;;;;;;-2.98;72.72;100491.47;5051472;28;20044;-82
2022/03/13 05:57:34;;;;;;;31.15;18.42;;;;;;;-2.88;72.31;100503.13;5022370;28;20124;-83
2022/03/13 06:00:00;;;;;;;34.05;19.10;;;;;;;-2.86;72.10;100491.38;5036631;28;20044;-84
2022/03/13 06:02:25;;;;;;;34.20;16.98;;;;;;;-2.89;72.12;100491.19;5039143;28;20045;-82
2022/03/13 06:04:52;;;;;;;36.58;18.38;;;;;;;-2.88;71.54;100493.84;5039191;28;20052;-84
2022/03/13 06:07:18;;;;;;;30.60;17.88;;;;;;;-2.82;71.88;100488.25;5056680;28;20099;-84
2022/03/13 06:09:44;;;;;;;32.03;17.00;;;;;;;-2.83;71.64;100489.94;5039446;28;20044;-86
2022/03/13 06:12:10;;;;;;;28.65;17.08;;;;;;;-2.81;70.79;100497.63;5055973;28;20090;-83
2022/03/13 06:14:36;;;;;;;34.35;18.27;;;;;;;-2.76;71.28;100488.63;5045997;28;20041;-83
2022/03/13 06:17:02;;;;;;;31.77;16.98;;;;;;;-2.74;70.57;100489.63;5002577;28;20095;-85
2022/03/13 06:19:28;;;;;;;;;;;;;;;-2.65;69.86;100492.72;5046354;28;20159;-82
2022/03/13 06:21:53;;;;;;;29.33;15.80;;;;;;;-2.57;69.93;100495.72;5057034;28;20003;-83
2022/03/13 06:24:19;;;;;;;27.50;15.68;;;;;;;-2.50;69.29;100499.53;5039504;28;20059;-83
2022/03/13 06:26:45;;;;;;;23.50;12.85;;;;;;;-2.44;67.82;100507.53;5043570;28;20037;-86
2022/03/13 06:29:13;;;;;;;26.20;12.57;;;;;;;-2.36;66.63;100496.16;5053373;28;20044;-84
2022/03/13 06:31:40;;;;;;;24.25;14.02;;;;;;;-2.28;65.30;100507.69;5023138;28;20037;-83
2022/03/13 06:34:05;;;;;;;22.45;12.85;;;;;;;-2.20;64.29;100501.41;5041560;28;20037;-84
2022/03/13 06:36:32;;;;;;;18.58;10.35;;;;;;;-2.16;63.52;100498.22;5030914;28;20051;-84
2022/03/13 06:38:58;;;;;;;18.80;8.68;;;;;;;-2.08;62.27;100497.03;5016778;28;20099;-85
2022/03/13 06:41:26;;;;;;;13.93;8.82;;;;;;;-2.00;61.07;100499.16;5022805;28;20511;-84
2022/03/13 06:43:51;;;;;;;;;;;;;;;-1.82;61.52;100505.31;5057174;28;20515;-85
2022/03/13 06:46:17;;;;;;;13.65;8.60;;;;;;;-1.64;61.11;100498.75;5056403;28;19921;-84
2022/03/13 06:48:42;;;;;;;14.73;8.25;;;;;;;-1.51;59.36;100510.53;5055399;28;20056;-84
2022/03/13 06:51:08;;;;;;;15.02;7.97;;;;;;;-1.36;58.74;100507.97;5055253;28;20549;-84
2022/03/13 06:53:35;;;;;;;14.70;9.27;;;;;;;-1.21;58.66;100508.84;5022166;28;20062;-84
2022/03/13 06:56:01;;;;;;;17.27;9.32;;;;;;;-1.12;59.29;100508.47;5055382;28;20040;-85
2022/03/13 06:58:27;;;;;;;15.07;9.35;;;;;;;-1.04;58.82;100509.78;5038513;28;20090;-84
2022/03/13 07:00:53;;;;;;;19.52;9.55;;;;;;;-1.04;57.92;100509.78;5038055;28;20139;-82
2022/03/13 07:03:19;;;;;;;19.17;9.73;;;;;;;-0.95;58.88;100517.06;5054151;28;20696;-80
2022/03/13 07:05:44;;;;;;;16.33;9.50;;;;;;;-0.99;58.30;100522.78;5010313;28;20048;-81
2022/03/13 07:08:10;;;;;;;16.75;9.27;;;;;;;-0.96;58.31;100522.94;5032517;28;20053;-80
2022/03/13 07:10:36;;;;;;;17.02;9.50;;;;;;;-0.98;57.77;100521.97;5038192;28;20036;-82
2022/03/13 07:13:02;;;;;;;17.15;9.57;;;;;;;-0.94;58.12;100519.69;5020815;28;20095;-81
2022/03/13 07:15:28;;;;;;;17.40;9.77;;;;;;;-1.02;57.57;100523.47;5020953;28;20444;-81
2022/03/13 07:17:53;;;;;;;18.40;10.55;;;;;;;-0.98;58.08;100529.63;5037747;28;20377;-83
2022/03/13 07:20:19;;;;;;;21.45;9.77;;;;;;;-1.00;57.87;100529.53;5053828;28;20040;-81
2022/03/13 07:22:45;;;;;;;;;;;;;;;-0.83;58.20;100530.47;5037968;28;20488;-81
2022/03/13 07:25:11;;;;;;;21.77;13.50;;;;;;;-0.88;57.80;100527.66;5040394;28;19916;-81
2022/03/13 07:27:37;;;;;;;25.70;13.27;;;;;;;-0.93;58.00;100535.84;5020381;28;20411;-82
2022/03/13 07:30:04;;;;;;;22.10;12.32;;;;;;;-0.95;57.93;100530.69;5037452;28;20048;-82
2022/03/13 07:32:30;;;;;;;19.95;11.73;;;;;;;-0.93;58.96;100530.75;5052418;28;20052;-82
2022/03/13 07:34:56;;;;;;;22.23;11.80;;;;;;;-0.88;58.55;100531.88;5005133;28;20038;-83
2022/03/13 07:37:22;;;;;;;19.77;11.38;;;;;;;-0.99;58.19;100530.41;5016522;28;20068;-82
2022/03/13 07:39:48;;;;;;;19.05;9.80;;;;;;;-0.86;57.40;100530.31;5020365;28;20032;-81
2022/03/13 07:42:15;;;;;;;15.05;9.93;;;;;;;-0.84;57.36;100528.72;5020084;28;20084;-82
2022/03/13 07:44:43;;;;;;;;;;;;;;;-0.85;56.52;100537.16;5053990;28;20506;-81
2022/03/13 07:47:09;;;;;;;16.65;9.32;;;;;;;-0.94;56.09;100534.09;5037084;28;20014;-82
2022/03/13 07:49:35;;;;;;;16.42;9.80;;;;;;;-1.00;57.26;100543.94;5054847;28;20086;-81
2022/03/13 07:52:00;;;;;;;17.95;9.43;;;;;;;-0.97;57.11;100555.16;5040643;28;20045;-81
2022/03/13 07:54:26;;;;;;;20.10;10.93;;;;;;;-1.00;57.08;100559.22;5017188;28;20407;-80
2022/03/13 07:56:52;;;;;;;20.70;9.88;;;;;;;-0.94;57.68;100557.91;5054430;28;20037;-81
2022/03/13 07:59:18;;;;;;;24.90;8.82;;;;;;;-0.82;57.60;100568.78;5036809;28;20041;-81
2022/03/13 08:01:43;;;;;;;16.13;8.93;;;;;;;-0.80;56.75;100559.53;5046334;28;20060;-81
2022/03/13 08:04:09;;;;;;;15.82;8.48;;;;;;;-0.83;56.53;100555.94;5047545;28;20041;-81
2022/03/13 08:06:35;;;;;;;14.90;9.68;;;;;;;-0.85;56.65;100560.06;5053065;28;20128;-81
2022/03/13 08:09:04;;;;;;;16.67;8.45;;;;;;;-0.91;56.37;100557.19;5025485;28;20029;-82
2022/03/13 08:11:32;;;;;;;14.43;7.80;;;;;;;-0.85;55.62;100560.94;5034841;28;20459;-81
2022/03/13 08:13:58;;;;;;;14.30;8.30;;;;;;;-0.78;55.87;100564.69;5036770;28;20041;-82
2022/03/13 08:16:24;;;;;;;14.35;7.78;;;;;;;-0.73;56.35;100560.75;5054228;28;20033;-82
2022/03/13 08:18:50;;;;;;;13.98;8.00;;;;;;;-0.64;55.96;100553.63;5049669;28;20037;-82
2022/03/13 08:21:16;;;;;;;17.27;10.02;;;;;;;-0.55;56.43;100559.22;5026901;28;20060;-81
2022/03/13 08:23:41;;;;;;;16.73;10.23;;;;;;;-0.40;56.49;100556.63;5038643;28;20037;-81
2022/03/13 08:26:08;;;;;;;14.02;8.38;;;;;;;-0.33;55.89;100552.72;4999799;28;20052;-83
2022/03/13 08:28:34;;;;;;;11.75;8.10;;;;;;;-0.24;55.69;100560.84;5029418;28;20043;-81
2022/03/13 08:31:01;;;;;;;13.02;7.80;;;;;;;-0.18;55.95;100568.84;5053909;28;20040;-81
2022/03/13 08:33:26;;;;;;;14.63;8.30;;;;;;;-0.25;55.70;100561.66;5043130;28;20036;-81
2022/03/13 08:35:52;;;;;;;17.20;8.82;;;;;;;-0.23;56.42;100565.16;5035477;28;20124;-82
2022/03/13 08:38:18;;;;;;;17.42;9.50;;;;;;;-0.28;56.97;100561.47;5013015;28;20092;-81
2022/03/13 08:40:45;;;;;;;13.00;7.25;;;;;;;-0.20;56.17;100562.78;5042981;28;20041;-81
2022/03/13 08:43:11;;;;;;;13.75;7.65;;;;;;;-0.33;56.81;100565.47;5042373;28;20033;-81
2022/03/13 08:45:37;;;;;;;13.20;7.20;;;;;;;-0.34;56.39;100568.81;5039161;28;20496;-82
2022/03/13 08:48:03;;;;;;;13.88;7.43;;;;;;;-0.56;57.38;100570.19;5047528;28;20037;-81
2022/03/13 08:50:29;;;;;;;;;;;;;;;-0.47;57.56;100567.28;5027447;28;20049;-80
2022/03/13 08:52:56;;;;;;;12.35;7.57;;;;;;;-0.41;57.15;100570.16;5020187;28;19948;-81
2022/03/13 08:55:22;;;;;;;10.95;6.55;;;;;;;-0.51;57.38;100568.75;5027371;28;20049;-80
2022/03/13 08:57:48;;;;;;;13.18;7.38;;;;;;;-0.55;57.82;100568.50;5036223;28;20029;-81
2022/03/13 09:00:15;;;;;;;11.18;7.50;;;;;;;-0.55;57.95;100564.31;5050392;28;20514;-83
2022/03/13 09:02:42;;;;;;;10.85;7.40;;;;;;;-0.55;57.86;100559.22;5041134;28;20083;-81
2022/03/13 09:05:08;;;;;;;58.30;38.60;;;;;;;-0.56;58.21;100548.94;5035335;28;20420;-83
2022/03/13 09:07:34;;;;;;;14.57;9.25;;;;;;;-0.51;58.44;100563.66;5053618;28;20036;-81
2022/03/13 09:10:02;;;;;;;10.32;6.55;;;;;;;-0.32;57.10;100557.00;5053611;28;20130;-80
2022/03/13 09:12:30;;;;;;;11.30;6.97;;;;;;;-0.32;57.02;100568.13;5039470;28;20048;-82
2022/03/13 09:14:57;;;;;;;13.68;7.25;;;;;;;-0.37;57.33;100566.09;5019774;28;20039;-83
2022/03/13 09:17:22;;;;;;;11.80;7.22;;;;;;;-0.38;57.26;100556.69;5052051;28;20025;-82
2022/03/13 09:19:48;;;;;;;10.50;6.75;;;;;;;-0.42;56.81;100554.78;5009842;28;20037;-82
2022/03/13 09:22:14;;;;;;;11.02;6.75;;;;;;;-0.44;57.17;100551.28;5045512;28;20129;-83
2022/03/13 09:24:40;;;;;;;12.75;7.43;;;;;;;-0.44;56.79;100551.28;5035486;28;20503;-82
2022/03/13 09:27:06;;;;;;;11.10;6.72;;;;;;;-0.45;57.20;100544.44;5052013;28;20036;-84
2022/03/13 09:29:32;;;;;;;12.10;7.20;;;;;;;-0.30;56.99;100552.91;5050572;28;20036;-81
2022/03/13 09:31:58;;;;;;;13.48;8.00;;;;;;;-0.27;57.15;100548.84;5040176;28;20091;-82
2022/03/13 09:34:24;;;;;;;13.30;8.15;;;;;;;-0.24;57.23;100548.09;5018044;28;20033;-82
2022/03/13 09:36:50;;;;;;;13.60;7.00;;;;;;;-0.23;56.95;100537.09;5039326;28;20106;-82
2022/03/13 09:39:16;;;;;;;14.88;7.70;;;;;;;-0.32;56.95;100531.53;5035864;28;20499;-83
2022/03/13 09:41:41;;;;;;;12.52;7.30;;;;;;;-0.21;57.04;100532.09;5051975;28;20044;-82
2022/03/13 09:44:07;;;;;;;11.82;7.00;;;;;;;-0.02;56.03;100542.47;5049412;28;20048;-83
2022/03/13 09:46:36;;;;;;;15.25;7.72;;;;;;;-0.06;56.14;100521.03;5008275;28;20393;-82
2022/03/13 09:49:05;;;;;;;12.23;6.25;;;;;;;0.10;55.69;100526.94;5052559;28;20071;-80
2022/03/13 09:51:32;;;;;;;12.30;7.63;;;;;;;0.14;55.82;100534.81;5052215;28;20033;-84
2022/03/13 09:53:58;;;;;;;14.15;8.73;;;;;;;0.14;55.64;100533.97;5034776;28;20048;-81
2022/03/13 09:56:23;;;;;;;11.60;7.43;;;;;;;0.00;56.08;100525.59;5052842;28;20115;-82
2022/03/13 09:58:50;;;;;;;16.10;8.05;;;;;;;0.12;56.16;100530.44;5051807;28;20045;-85
2022/03/13 10:01:16;;;;;;;17.27;10.35;;;;;;;0.06;56.32;100519.91;5005205;28;20400;-82
2022/03/13 10:03:42;;;;;;;15.25;10.18;;;;;;;0.17;56.72;100518.78;5051853;28;20047;-84
2022/03/13 10:06:08;;;;;;;17.85;9.73;;;;;;;0.32;56.58;100517.03;5037120;28;20072;-81
2022/03/13 10:08:34;;;;;;;17.20;10.63;;;;;;;0.38;57.05;100514.78;5052261;28;20040;-80
2022/03/13 10:11:02;;;;;;;14.80;8.75;;;;;;;0.50;56.54;100519.59;5019684;28;20057;-81
2022/03/13 10:13:41;;;;;;;15.75;10.20;;;;;;;0.67;55.73;100516.22;5051168;28;20037;-85
2022/03/13 10:16:08;;;;;;;22.15;11.65;;;;;;;0.68;55.48;100506.88;5051781;28;20127;-82
2022/03/13 10:18:34;;;;;;;14.38;9.98;;;;;;;0.66;55.64;100513.59;5035752;28;20495;-82
2022/03/13 10:21:18;;;;;;;14.57;10.18;;;;;;;0.62;55.47;100514.22;5051676;28;20098;-81
2022/03/13 10:23:47;;;;;;;20.67;12.65;;;;;;;0.52;56.43;100515.47;5051963;28;20080;-81
2022/03/13 10:26:16;;;;;;;19.48;12.02;;;;;;;0.55;56.32;100510.53;5051569;28;20033;-82
2022/03/13 10:28:42;;;;;;;16.88;10.88;;;;;;;0.61;56.07;100515.03;5051507;28;20503;-83
2022/03/13 10:31:17;;;;;;;18.00;11.52;;;;;;;0.50;56.30;100512.84;5052782;28;20059;-85
2022/03/13 10:33:43;;;;;;;12.25;9.50;;;;;;;0.52;56.56;100517.13;5050984;28;20041;-85
2022/03/13 10:36:10;;;;;;;12.48;7.93;;;;;;;0.57;55.97;100515.69;5033178;28;20040;-84
2022/03/13 10:38:37;;;;;;;13.38;8.65;;;;;;;0.56;56.52;100508.84;5046365;28;20044;-87
2022/03/13 10:41:08;;;;;;;12.25;8.35;;;;;;;0.12;56.50;100520.22;5046881;28;20045;-84
2022/03/13 10:43:37;;;;;;;11.35;7.60;;;;;;;-0.20;57.46;100514.34;5016544;28;20071;-81
2022/03/13 10:46:04;;;;;;;11.00;7.65;;;;;;;-0.11;57.68;100517.34;5016142;28;20033;-81
2022/03/13 10:48:36;;;;;;;14.52;8.43;;;;;;;-0.16;58.10;100506.03;5039050;28;20045;-84
2022/03/13 10:51:03;;;;;;;13.70;7.93;;;;;;;-0.12;58.20;100514.75;5020892;28;20072;-82
2022/03/13 10:53:30;;;;;;;12.88;7.90;;;;;;;-0.12;58.13;100505.41;5044668;28;20123;-84
2022/03/13 10:56:01;;;;;;;11.95;7.80;;;;;;;-0.23;57.58;100505.63;5038452;28;20040;-83
2022/03/13 10:58:30;;;;;;;15.05;8.27;;;;;;;-0.29;57.47;100514.72;5021923;28;20507;-81
2022/03/13 11:01:04;;;;;;;11.55;7.10;;;;;;;-0.09;57.96;100507.22;5021408;28;20056;-82
2022/03/13 11:03:31;;;;;;;10.15;6.90;;;;;;;0.17;57.87;100499.25;5052800;28;20393;-81
2022/03/13 11:05:59;;;;;;;10.60;7.00;;;;;;;0.35;56.62;100514.59;5042204;28;20049;-82
2022/03/13 11:08:26;;;;;;;10.93;6.75;;;;;;;0.58;56.64;100507.22;5053193;28;20063;-81
2022/03/13 11:10:53;;;;;;;11.85;6.78;;;;;;;0.56;55.30;100511.41;5054553;28;20048;-83
2022/03/13 11:13:21;;;;;;;9.65;6.07;;;;;;;0.71;55.24;100513.00;5053480;28;20506;-81
2022/03/13 11:15:47;;;;;;;8.02;5.68;;;;;;;0.57;55.03;100510.59;5002546;28;20025;-81